Etusivu
METAR-TAF:

METAR-TAF

Lentoasemat :

Turku, Suomi

Turun lentoasema

Leveyspiiri: 60-31N, Pituuspiiri: 022-16E, korkeus merenpinnasta: 49 m

Tämänhetkinen sää

Tämä raportti tehtiin 15 minuuttia sitten, kello 04.50 UTC
Tuuli 4 kn lännestä
Lämpötila 11°C
Kosteus 71%
Ilmanpaine 1009 hPa
Näkyvyys 10 km tai enemmän
ei pilviä alle 1500 m:ssä eikä cumulonimbus-pilviä

METAR: EFTU 230450Z AUTO 27004KT CAVOK 11/06 Q1009

Aika: 08:05 (05:05 UTC)

Sääennuste

Tämä raportti tehtiin 2 tuntia ja 42 minuuttia sitten, kello 02.23 UTC
Ennuste voimassa 23. päivästä klo 03 UTC - 24. päivään klo 03 UTC
Tuuli 5 kn lounaasta
Näkyvyys 10 km tai enemmän
ei pilviä alle 1500 m:ssä eikä cumulonimbus-pilviä
Todennäköisyys 30%
23. päivästä klo 12 UTC - 23. päivään klo 18 UTC
Muutamia pilviä 4000 ft:n korkeudessa, Cumulonimbus.

TAF: EFTU 230223Z 2303/2403 23005KT CAVOK PROB30 2312/2318 FEW040CB

Säähavainnot ja -ennusteet yli 4000 lentoasemalta (METAR- ja TAF-raportit).

Käytössä olevat sääasemat on merkitty karttaan keltaisilla ja punaisilla pisteillä.

Aseta hiiri pisteen päälle nähdäksesi sääaseman nimen.

Klikkaa sitten nähdäksesi säähavainnot ja -ennusteet.

Kartan vaihtaminen: klikkaa mustalla rastilla varustettuja vihreitä pisteitä, niin voit zoomata sisään; viivalla varustettua vihreää pistettä, niin voit zoomata ulos tai vihreitä nuolia, niin pääset viereisille kartoille.


METAR-TAF: